SWA2305 KMDW-KSAN
Flight info
| Callsign | SWA2305 |
|---|---|
| Flight time | 3h 33m |
| Altitude | 36000 |
| Route | PEKUE PIPPN ROTTN PWE KK57C EXHAS JUNER RGINA DILCO DRK J96 PKE LUCKI1 |
| Aircraft | B738/M-SDE2E3FGHIRWXY/LB1 |
Departure
| Time | 2026-04-21 13:45 |
|---|---|
| Airport | Chicago Midway International Airport (KMDW) |
Arrival
| Time | 2026-04-21 17:18 |
|---|---|
| Airport | San Diego International Airport (KSAN) |
| Time | Latitude | Longitude | Altitude | Speed | Heading |
|---|---|---|---|---|---|
| 2026-04-21 13:26 | 41.78458 | -87.74419 | 628 ft | 0 kts | 69° |
| 2026-04-21 13:37 | 41.78452 | -87.74439 | 634 ft | 4 kts | 69° |
| 2026-04-21 13:37 | 41.78445 | -87.74466 | 636 ft | 4 kts | 60° |
| 2026-04-21 13:38 | 41.78434 | -87.74479 | 629 ft | 4 kts | 329° |
| 2026-04-21 13:38 | 41.78415 | -87.74456 | 628 ft | 3 kts | 313° |
| 2026-04-21 13:38 | 41.78413 | -87.74454 | 628 ft | 2 kts | 313° |
| 2026-04-21 13:41 | 41.78417 | -87.74466 | 632 ft | 4 kts | 289° |
| 2026-04-21 13:41 | 41.78433 | -87.74529 | 628 ft | 11 kts | 296° |
| 2026-04-21 13:42 | 41.78504 | -87.74639 | 631 ft | 17 kts | 313° |
| 2026-04-21 13:42 | 41.78588 | -87.74757 | 628 ft | 17 kts | 316° |
| 2026-04-21 13:42 | 41.78700 | -87.74774 | 631 ft | 17 kts | 28° |
| 2026-04-21 13:42 | 41.78791 | -87.74667 | 632 ft | 19 kts | 43° |
| 2026-04-21 13:43 | 41.78896 | -87.74533 | 633 ft | 21 kts | 43° |
| 2026-04-21 13:43 | 41.79001 | -87.74400 | 635 ft | 21 kts | 43° |
| 2026-04-21 13:43 | 41.79104 | -87.74273 | 635 ft | 17 kts | 36° |
| 2026-04-21 13:43 | 41.79178 | -87.74289 | 632 ft | 8 kts | 314° |
| 2026-04-21 13:44 | 41.79169 | -87.74346 | 632 ft | 3 kts | 224° |
| 2026-04-21 13:44 | 41.79164 | -87.74352 | 629 ft | 9 kts | 223° |
| 2026-04-21 13:44 | 41.78919 | -87.74663 | 632 ft | 87 kts | 223° |
| 2026-04-21 13:44 | 41.78291 | -87.75427 | 678 ft | 148 kts | 218° |
| 2026-04-21 13:45 | 41.77479 | -87.76321 | 1441 ft | 151 kts | 220° |
| 2026-04-21 13:45 | 41.76681 | -87.77168 | 2521 ft | 141 kts | 225° |
| 2026-04-21 13:45 | 41.75922 | -87.77879 | 3441 ft | 124 kts | 223° |
| 2026-04-21 13:45 | 41.75144 | -87.78581 | 3731 ft | 152 kts | 223° |
| 2026-04-21 13:46 | 41.74201 | -87.79497 | 3963 ft | 181 kts | 223° |
| 2026-04-21 13:46 | 41.73130 | -87.80582 | 4150 ft | 205 kts | 223° |
| 2026-04-21 13:46 | 41.71939 | -87.81824 | 4324 ft | 229 kts | 223° |
| 2026-04-21 13:46 | 41.70650 | -87.83200 | 4620 ft | 248 kts | 223° |
| 2026-04-21 13:47 | 41.69286 | -87.84671 | 5323 ft | 253 kts | 223° |
| 2026-04-21 13:47 | 41.67913 | -87.86149 | 6229 ft | 254 kts | 223° |
| 2026-04-21 13:47 | 41.66525 | -87.87635 | 7012 ft | 257 kts | 223° |
| 2026-04-21 13:47 | 41.65350 | -87.89401 | 7745 ft | 254 kts | 249° |
| 2026-04-21 13:48 | 41.64912 | -87.91646 | 8517 ft | 254 kts | 264° |
| 2026-04-21 13:48 | 41.65026 | -87.94044 | 9278 ft | 258 kts | 280° |
| 2026-04-21 13:48 | 41.65408 | -87.96372 | 10049 ft | 262 kts | 282° |
| 2026-04-21 13:48 | 41.65837 | -87.98806 | 10479 ft | 278 kts | 282° |
| 2026-04-21 13:49 | 41.66305 | -88.01439 | 10649 ft | 302 kts | 282° |
| 2026-04-21 13:49 | 41.66807 | -88.04280 | 10821 ft | 325 kts | 282° |
| 2026-04-21 13:49 | 41.67341 | -88.07330 | 10973 ft | 346 kts | 282° |
| 2026-04-21 13:49 | 41.67896 | -88.10518 | 11159 ft | 363 kts | 282° |
| 2026-04-21 13:50 | 41.68472 | -88.13858 | 11600 ft | 371 kts | 281° |
| 2026-04-21 13:50 | 41.69053 | -88.17245 | 12221 ft | 374 kts | 281° |
| 2026-04-21 13:50 | 41.69629 | -88.20612 | 12862 ft | 376 kts | 281° |
| 2026-04-21 13:50 | 41.70214 | -88.24042 | 13456 ft | 380 kts | 281° |
| 2026-04-21 13:51 | 41.70803 | -88.27512 | 14032 ft | 383 kts | 281° |
| 2026-04-21 13:51 | 41.71384 | -88.30936 | 15105 ft | 370 kts | 282° |
| 2026-04-21 13:51 | 41.71943 | -88.34241 | 16264 ft | 358 kts | 282° |
| 2026-04-21 13:51 | 41.72484 | -88.37441 | 17419 ft | 346 kts | 282° |
| 2026-04-21 13:52 | 41.73006 | -88.40547 | 18415 ft | 340 kts | 283° |
| 2026-04-21 13:52 | 41.73520 | -88.43606 | 18968 ft | 343 kts | 283° |
| 2026-04-21 13:52 | 41.74047 | -88.46745 | 19480 ft | 347 kts | 283° |
| 2026-04-21 13:52 | 41.74580 | -88.49927 | 19967 ft | 351 kts | 283° |
| 2026-04-21 13:53 | 41.75118 | -88.53145 | 20513 ft | 354 kts | 283° |
| 2026-04-21 13:53 | 41.75656 | -88.56374 | 21087 ft | 355 kts | 283° |
| 2026-04-21 13:53 | 41.76189 | -88.59574 | 21635 ft | 358 kts | 283° |
| 2026-04-21 13:53 | 41.76734 | -88.62848 | 22142 ft | 360 kts | 283° |
| 2026-04-21 13:54 | 41.77280 | -88.66143 | 22754 ft | 361 kts | 283° |
| 2026-04-21 13:54 | 41.77820 | -88.69397 | 23255 ft | 363 kts | 283° |
| 2026-04-21 13:54 | 41.78371 | -88.72724 | 23711 ft | 366 kts | 283° |
| 2026-04-21 13:54 | 41.78927 | -88.76093 | 24114 ft | 369 kts | 283° |
| 2026-04-21 13:55 | 41.79328 | -88.79466 | 24522 ft | 372 kts | 276° |
| 2026-04-21 13:55 | 41.79367 | -88.82957 | 24946 ft | 376 kts | 269° |
| 2026-04-21 13:55 | 41.79026 | -88.86451 | 25340 ft | 380 kts | 263° |
| 2026-04-21 13:55 | 41.78559 | -88.89962 | 25725 ft | 383 kts | 263° |
| 2026-04-21 13:56 | 41.78082 | -88.93451 | 26100 ft | 385 kts | 262° |
| 2026-04-21 13:56 | 41.77598 | -88.96986 | 26526 ft | 386 kts | 263° |
| 2026-04-21 13:56 | 41.77118 | -89.00517 | 27076 ft | 383 kts | 263° |
| 2026-04-21 13:56 | 41.76650 | -89.03984 | 27629 ft | 380 kts | 263° |
| 2026-04-21 13:57 | 41.76181 | -89.07473 | 28152 ft | 379 kts | 263° |
| 2026-04-21 13:57 | 41.75718 | -89.10942 | 28646 ft | 378 kts | 263° |
| 2026-04-21 13:57 | 41.75254 | -89.14410 | 29172 ft | 376 kts | 263° |
| 2026-04-21 13:57 | 41.74798 | -89.17815 | 29699 ft | 374 kts | 263° |
| 2026-04-21 13:58 | 41.74340 | -89.21235 | 30176 ft | 372 kts | 263° |
| 2026-04-21 13:58 | 41.73882 | -89.24645 | 30551 ft | 372 kts | 263° |
| 2026-04-21 13:58 | 41.73421 | -89.28074 | 30870 ft | 373 kts | 263° |
| 2026-04-21 13:58 | 41.72965 | -89.31450 | 31229 ft | 372 kts | 263° |
| 2026-04-21 13:59 | 41.72504 | -89.34856 | 31631 ft | 371 kts | 263° |
| 2026-04-21 13:59 | 41.72044 | -89.38251 | 31999 ft | 370 kts | 263° |
| 2026-04-21 13:59 | 41.71584 | -89.41635 | 32335 ft | 370 kts | 263° |
| 2026-04-21 13:59 | 41.71121 | -89.45033 | 32493 ft | 375 kts | 263° |
| 2026-04-21 14:00 | 41.70169 | -89.52020 | 32617 ft | 388 kts | 262° |
| 2026-04-21 14:00 | 41.69182 | -89.59200 | 32738 ft | 400 kts | 262° |
| 2026-04-21 14:01 | 41.68153 | -89.66656 | 32833 ft | 411 kts | 262° |
| 2026-04-21 14:01 | 41.67094 | -89.74237 | 32970 ft | 421 kts | 261° |
| 2026-04-21 14:02 | 41.65879 | -89.81931 | 33431 ft | 422 kts | 260° |
| 2026-04-21 14:02 | 41.65247 | -89.85768 | 33769 ft | 420 kts | 260° |
| 2026-04-21 14:03 | 41.63994 | -89.93370 | 34253 ft | 420 kts | 261° |
| 2026-04-21 14:03 | 41.63366 | -89.97204 | 34468 ft | 419 kts | 261° |
| 2026-04-21 14:03 | 41.62751 | -90.00967 | 34656 ft | 419 kts | 261° |
| 2026-04-21 14:03 | 41.62125 | -90.04800 | 34822 ft | 420 kts | 261° |
| 2026-04-21 14:04 | 41.61502 | -90.08612 | 35031 ft | 420 kts | 261° |
| 2026-04-21 14:04 | 41.60878 | -90.12426 | 35246 ft | 419 kts | 261° |
| 2026-04-21 14:04 | 41.60260 | -90.16193 | 35444 ft | 419 kts | 261° |
| 2026-04-21 14:04 | 41.59635 | -90.19997 | 35644 ft | 419 kts | 261° |
| 2026-04-21 14:05 | 41.59006 | -90.23814 | 35845 ft | 418 kts | 261° |
| 2026-04-21 14:05 | 41.58379 | -90.27611 | 36002 ft | 419 kts | 261° |
| 2026-04-21 14:05 | 41.57747 | -90.31435 | 35988 ft | 421 kts | 261° |
| 2026-04-21 14:06 | 41.56487 | -90.39030 | 35988 ft | 419 kts | 261° |
| 2026-04-21 14:06 | 41.55219 | -90.46629 | 35992 ft | 417 kts | 260° |
| 2026-04-21 14:07 | 41.53962 | -90.54131 | 36000 ft | 415 kts | 260° |
| 2026-04-21 14:07 | 41.52699 | -90.61647 | 36001 ft | 414 kts | 260° |
| 2026-04-21 14:08 | 41.51438 | -90.69116 | 36000 ft | 414 kts | 260° |
| 2026-04-21 14:08 | 41.50163 | -90.76632 | 35983 ft | 414 kts | 260° |
| 2026-04-21 14:09 | 41.48886 | -90.84136 | 35998 ft | 415 kts | 260° |
| 2026-04-21 14:09 | 41.47606 | -90.91624 | 35995 ft | 417 kts | 260° |
| 2026-04-21 14:10 | 41.46314 | -90.99146 | 36005 ft | 418 kts | 260° |
| 2026-04-21 14:10 | 41.45009 | -91.06718 | 36008 ft | 419 kts | 260° |
| 2026-04-21 14:11 | 41.43691 | -91.14322 | 36009 ft | 420 kts | 260° |
| 2026-04-21 14:11 | 41.42376 | -91.21887 | 36008 ft | 421 kts | 259° |
| 2026-04-21 14:12 | 41.41042 | -91.29523 | 36011 ft | 423 kts | 259° |
| 2026-04-21 14:12 | 41.39701 | -91.37171 | 36005 ft | 423 kts | 259° |
| 2026-04-21 14:13 | 41.38362 | -91.44775 | 35991 ft | 424 kts | 259° |
| 2026-04-21 14:13 | 41.37235 | -91.51147 | 35992 ft | 424 kts | 259° |
| 2026-04-21 14:14 | 41.35876 | -91.58808 | 35984 ft | 424 kts | 259° |
| 2026-04-21 14:14 | 41.34511 | -91.66465 | 35993 ft | 425 kts | 259° |
| 2026-04-21 14:15 | 41.33148 | -91.74084 | 35985 ft | 425 kts | 259° |
| 2026-04-21 14:15 | 41.31773 | -91.81734 | 35989 ft | 424 kts | 259° |
| 2026-04-21 14:16 | 41.30404 | -91.89325 | 35993 ft | 424 kts | 259° |
| 2026-04-21 14:16 | 41.29019 | -91.96972 | 35987 ft | 424 kts | 259° |
| 2026-04-21 14:17 | 41.27638 | -92.04566 | 35988 ft | 424 kts | 259° |
| 2026-04-21 14:17 | 41.26242 | -92.12211 | 35988 ft | 425 kts | 259° |
| 2026-04-21 14:18 | 41.24850 | -92.19804 | 35983 ft | 425 kts | 259° |
| 2026-04-21 14:18 | 41.23442 | -92.27452 | 35996 ft | 425 kts | 259° |
| 2026-04-21 14:19 | 41.22038 | -92.35050 | 35991 ft | 425 kts | 259° |
| 2026-04-21 14:19 | 41.20619 | -92.42697 | 36002 ft | 426 kts | 259° |
| 2026-04-21 14:20 | 41.19191 | -92.50364 | 35998 ft | 427 kts | 259° |
| 2026-04-21 14:20 | 41.17768 | -92.57968 | 36003 ft | 427 kts | 259° |
| 2026-04-21 14:21 | 41.16326 | -92.65650 | 35995 ft | 428 kts | 259° |
| 2026-04-21 14:21 | 41.14888 | -92.73276 | 35986 ft | 428 kts | 259° |
| 2026-04-21 14:22 | 41.13429 | -92.80983 | 35988 ft | 429 kts | 259° |
| 2026-04-21 14:22 | 41.11969 | -92.88669 | 35978 ft | 430 kts | 259° |
| 2026-04-21 14:23 | 41.10509 | -92.96325 | 35973 ft | 431 kts | 259° |
| 2026-04-21 14:23 | 41.09023 | -93.04082 | 35961 ft | 431 kts | 259° |
| 2026-04-21 14:24 | 41.07549 | -93.11743 | 35978 ft | 431 kts | 259° |
| 2026-04-21 14:24 | 41.06063 | -93.19449 | 35994 ft | 432 kts | 259° |
| 2026-04-21 14:25 | 41.04571 | -93.27147 | 35988 ft | 433 kts | 259° |
| 2026-04-21 14:25 | 41.03059 | -93.34923 | 35987 ft | 434 kts | 259° |
| 2026-04-21 14:26 | 41.01560 | -93.42603 | 35995 ft | 434 kts | 259° |
| 2026-04-21 14:26 | 41.00040 | -93.50359 | 35986 ft | 434 kts | 259° |
| 2026-04-21 14:27 | 40.98220 | -93.57966 | 36005 ft | 436 kts | 253° |
| 2026-04-21 14:27 | 40.96041 | -93.65485 | 35974 ft | 437 kts | 253° |
| 2026-04-21 14:28 | 40.93843 | -93.73004 | 35976 ft | 437 kts | 253° |
| 2026-04-21 14:28 | 40.91679 | -93.80520 | 35982 ft | 437 kts | 253° |
| 2026-04-21 14:29 | 40.89541 | -93.87991 | 35965 ft | 437 kts | 253° |
| 2026-04-21 14:29 | 40.87385 | -93.95524 | 35979 ft | 437 kts | 253° |
| 2026-04-21 14:30 | 40.85236 | -94.03013 | 35981 ft | 438 kts | 253° |
| 2026-04-21 14:30 | 40.83062 | -94.10562 | 35972 ft | 439 kts | 253° |
| 2026-04-21 14:31 | 40.80895 | -94.18064 | 35980 ft | 439 kts | 253° |
| 2026-04-21 14:31 | 40.78711 | -94.25602 | 35982 ft | 439 kts | 253° |
| 2026-04-21 14:32 | 40.76517 | -94.33156 | 35979 ft | 440 kts | 253° |
| 2026-04-21 14:32 | 40.74333 | -94.40650 | 35979 ft | 441 kts | 253° |
| 2026-04-21 14:33 | 40.72118 | -94.48232 | 35982 ft | 442 kts | 253° |
| 2026-04-21 14:33 | 40.69906 | -94.55779 | 35980 ft | 442 kts | 253° |
| 2026-04-21 14:34 | 40.67682 | -94.63342 | 35976 ft | 443 kts | 254° |
| 2026-04-21 14:34 | 40.65448 | -94.70924 | 35999 ft | 444 kts | 253° |
| 2026-04-21 14:35 | 40.63221 | -94.78458 | 36005 ft | 445 kts | 253° |
| 2026-04-21 14:35 | 40.60961 | -94.86081 | 36009 ft | 446 kts | 253° |
| 2026-04-21 14:36 | 40.58692 | -94.93711 | 36013 ft | 447 kts | 253° |
| 2026-04-21 14:36 | 40.56432 | -95.01290 | 36006 ft | 447 kts | 253° |
| 2026-04-21 14:37 | 40.54146 | -95.08935 | 36001 ft | 448 kts | 253° |
| 2026-04-21 14:37 | 40.51867 | -95.16533 | 36008 ft | 449 kts | 253° |
| 2026-04-21 14:38 | 40.49559 | -95.24208 | 35991 ft | 450 kts | 253° |
| 2026-04-21 14:38 | 40.47262 | -95.31823 | 35985 ft | 451 kts | 253° |
| 2026-04-21 14:39 | 40.44943 | -95.39486 | 35977 ft | 451 kts | 253° |
| 2026-04-21 14:39 | 40.42633 | -95.47104 | 35993 ft | 452 kts | 253° |
| 2026-04-21 14:40 | 40.40296 | -95.54784 | 35991 ft | 452 kts | 253° |
| 2026-04-21 14:40 | 40.37953 | -95.62462 | 36000 ft | 453 kts | 253° |
| 2026-04-21 14:41 | 40.35617 | -95.70097 | 35999 ft | 453 kts | 253° |
| 2026-04-21 14:41 | 40.33261 | -95.77774 | 35990 ft | 453 kts | 253° |
| 2026-04-21 14:42 | 40.30913 | -95.85406 | 35985 ft | 454 kts | 253° |
| 2026-04-21 14:42 | 40.28551 | -95.93061 | 35987 ft | 454 kts | 253° |
| 2026-04-21 14:43 | 40.26169 | -96.00760 | 35984 ft | 455 kts | 253° |
| 2026-04-21 14:43 | 40.23792 | -96.08421 | 35979 ft | 456 kts | 253° |
| 2026-04-21 14:44 | 40.21396 | -96.16124 | 35973 ft | 457 kts | 253° |
| 2026-04-21 14:44 | 40.18895 | -96.23790 | 35987 ft | 459 kts | 250° |
| 2026-04-21 14:45 | 40.16058 | -96.31269 | 35986 ft | 462 kts | 248° |
| 2026-04-21 14:45 | 40.13150 | -96.38724 | 35990 ft | 462 kts | 248° |
| 2026-04-21 14:46 | 40.10233 | -96.46280 | 35979 ft | 463 kts | 249° |
| 2026-04-21 14:46 | 40.07372 | -96.53742 | 35984 ft | 463 kts | 249° |
| 2026-04-21 14:47 | 40.04488 | -96.61278 | 36005 ft | 463 kts | 248° |
| 2026-04-21 14:47 | 40.01606 | -96.68778 | 36016 ft | 464 kts | 248° |
| 2026-04-21 14:48 | 39.98698 | -96.76328 | 36017 ft | 464 kts | 248° |
| 2026-04-21 14:48 | 39.95798 | -96.83836 | 36011 ft | 465 kts | 248° |
| 2026-04-21 14:49 | 39.92898 | -96.91324 | 35994 ft | 465 kts | 248° |
| 2026-04-21 14:49 | 39.89972 | -96.98863 | 35998 ft | 466 kts | 248° |
| 2026-04-21 14:50 | 39.87529 | -97.05143 | 35984 ft | 467 kts | 248° |
| 2026-04-21 14:50 | 39.84106 | -97.13917 | 35973 ft | 468 kts | 248° |
| 2026-04-21 14:51 | 39.81151 | -97.21473 | 35966 ft | 468 kts | 248° |
| 2026-04-21 14:51 | 39.78201 | -97.28996 | 35965 ft | 468 kts | 248° |
| 2026-04-21 14:52 | 39.75235 | -97.36542 | 35959 ft | 467 kts | 247° |
| 2026-04-21 14:52 | 39.72286 | -97.44025 | 35958 ft | 467 kts | 247° |
| 2026-04-21 14:53 | 39.69312 | -97.51554 | 36010 ft | 467 kts | 247° |
| 2026-04-21 14:53 | 39.66351 | -97.59031 | 36022 ft | 467 kts | 247° |
| 2026-04-21 14:54 | 39.63382 | -97.66508 | 36030 ft | 467 kts | 247° |
| 2026-04-21 14:54 | 39.60398 | -97.74007 | 36041 ft | 467 kts | 247° |
| 2026-04-21 14:55 | 39.57417 | -97.81481 | 36026 ft | 468 kts | 247° |
| 2026-04-21 14:55 | 39.54408 | -97.89005 | 36010 ft | 469 kts | 247° |
| 2026-04-21 14:56 | 39.51410 | -97.96487 | 35994 ft | 469 kts | 247° |
| 2026-04-21 14:56 | 39.48478 | -98.04067 | 35967 ft | 468 kts | 249° |
| 2026-04-21 14:57 | 39.45811 | -98.11712 | 35953 ft | 468 kts | 250° |
| 2026-04-21 14:57 | 39.43155 | -98.19435 | 35956 ft | 469 kts | 250° |
| 2026-04-21 14:58 | 39.40479 | -98.27111 | 35951 ft | 470 kts | 250° |
| 2026-04-21 14:58 | 39.37761 | -98.34824 | 35938 ft | 470 kts | 250° |
| 2026-04-21 14:59 | 39.35051 | -98.42474 | 35960 ft | 471 kts | 249° |
| 2026-04-21 14:59 | 39.32314 | -98.50182 | 35953 ft | 472 kts | 249° |
| 2026-04-21 15:00 | 39.29565 | -98.57907 | 35941 ft | 472 kts | 249° |
| 2026-04-21 15:00 | 39.26828 | -98.65577 | 35959 ft | 473 kts | 249° |
| 2026-04-21 15:01 | 39.24068 | -98.73295 | 35942 ft | 473 kts | 249° |
| 2026-04-21 15:01 | 39.21772 | -98.79698 | 35950 ft | 473 kts | 249° |
| 2026-04-21 15:02 | 39.18550 | -98.88658 | 35963 ft | 473 kts | 249° |
| 2026-04-21 15:02 | 39.16242 | -98.95061 | 35958 ft | 473 kts | 249° |
| 2026-04-21 15:03 | 39.13456 | -99.02770 | 35969 ft | 473 kts | 249° |
| 2026-04-21 15:03 | 39.10679 | -99.10437 | 35958 ft | 474 kts | 249° |
| 2026-04-21 15:04 | 39.07900 | -99.18090 | 35995 ft | 474 kts | 249° |
| 2026-04-21 15:04 | 39.05092 | -99.25799 | 36005 ft | 474 kts | 249° |
| 2026-04-21 15:05 | 39.02292 | -99.33469 | 36011 ft | 475 kts | 248° |
| 2026-04-21 15:05 | 38.98062 | -99.45017 | 35970 ft | 475 kts | 248° |
| 2026-04-21 15:06 | 38.95249 | -99.52671 | 35964 ft | 475 kts | 248° |
| 2026-04-21 15:06 | 38.92440 | -99.60296 | 35971 ft | 475 kts | 248° |
| 2026-04-21 15:07 | 38.89596 | -99.67999 | 35970 ft | 475 kts | 248° |
| 2026-04-21 15:07 | 38.86758 | -99.75662 | 35959 ft | 475 kts | 248° |
| 2026-04-21 15:08 | 38.83935 | -99.83267 | 35956 ft | 475 kts | 248° |
| 2026-04-21 15:08 | 38.81072 | -99.90958 | 35952 ft | 475 kts | 248° |
| 2026-04-21 15:09 | 38.78226 | -99.98585 | 35955 ft | 476 kts | 248° |
| 2026-04-21 15:09 | 38.75360 | -100.06247 | 35954 ft | 476 kts | 248° |
| 2026-04-21 15:10 | 38.72500 | -100.13872 | 35956 ft | 476 kts | 248° |
| 2026-04-21 15:10 | 38.69630 | -100.21504 | 35943 ft | 477 kts | 247° |
| 2026-04-21 15:11 | 38.66737 | -100.29178 | 35949 ft | 477 kts | 247° |
| 2026-04-21 15:11 | 38.63850 | -100.36817 | 35951 ft | 477 kts | 247° |
| 2026-04-21 15:12 | 38.60963 | -100.44439 | 35950 ft | 478 kts | 247° |
| 2026-04-21 15:12 | 38.58066 | -100.52066 | 35974 ft | 478 kts | 247° |
| 2026-04-21 15:13 | 38.55146 | -100.59736 | 35986 ft | 478 kts | 247° |
| 2026-04-21 15:13 | 38.52251 | -100.67318 | 36032 ft | 478 kts | 247° |
| 2026-04-21 15:14 | 38.49341 | -100.74923 | 36057 ft | 478 kts | 246° |
| 2026-04-21 15:14 | 38.46398 | -100.82596 | 36065 ft | 478 kts | 246° |
| 2026-04-21 15:15 | 38.43485 | -100.90170 | 36064 ft | 479 kts | 246° |
| 2026-04-21 15:15 | 38.40543 | -100.97800 | 36060 ft | 479 kts | 246° |
| 2026-04-21 15:16 | 38.37596 | -101.05426 | 36032 ft | 479 kts | 246° |
| 2026-04-21 15:16 | 38.34651 | -101.13032 | 36008 ft | 479 kts | 246° |
| 2026-04-21 15:17 | 38.31746 | -101.20664 | 35980 ft | 479 kts | 248° |
| 2026-04-21 15:17 | 38.28961 | -101.28379 | 35958 ft | 478 kts | 248° |
| 2026-04-21 15:18 | 38.26199 | -101.36067 | 35952 ft | 478 kts | 248° |
| 2026-04-21 15:18 | 38.23411 | -101.43757 | 35958 ft | 478 kts | 248° |
| 2026-04-21 15:19 | 38.20614 | -101.51416 | 35955 ft | 479 kts | 248° |
| 2026-04-21 15:19 | 38.17798 | -101.59098 | 35955 ft | 479 kts | 248° |
| 2026-04-21 15:20 | 38.14993 | -101.66734 | 35957 ft | 479 kts | 248° |
| 2026-04-21 15:20 | 38.12174 | -101.74386 | 35960 ft | 479 kts | 247° |
| 2026-04-21 15:21 | 38.09344 | -101.82053 | 35952 ft | 479 kts | 247° |
| 2026-04-21 15:21 | 38.06507 | -101.89719 | 35960 ft | 479 kts | 247° |
| 2026-04-21 15:22 | 38.03671 | -101.97364 | 35949 ft | 479 kts | 247° |
| 2026-04-21 15:22 | 38.00841 | -102.04970 | 35939 ft | 479 kts | 247° |
| 2026-04-21 15:23 | 37.97993 | -102.12609 | 35949 ft | 479 kts | 247° |
| 2026-04-21 15:23 | 37.95127 | -102.20276 | 35943 ft | 480 kts | 247° |
| 2026-04-21 15:24 | 37.92276 | -102.27883 | 35939 ft | 480 kts | 247° |
| 2026-04-21 15:24 | 37.89415 | -102.35497 | 35939 ft | 480 kts | 247° |
| 2026-04-21 15:25 | 37.86544 | -102.43120 | 35931 ft | 480 kts | 246° |
| 2026-04-21 15:25 | 37.83666 | -102.50742 | 35938 ft | 480 kts | 246° |
| 2026-04-21 15:26 | 37.80787 | -102.58347 | 35940 ft | 480 kts | 246° |
| 2026-04-21 15:26 | 37.77904 | -102.65946 | 35932 ft | 479 kts | 246° |
| 2026-04-21 15:27 | 37.75011 | -102.73550 | 35931 ft | 479 kts | 246° |
| 2026-04-21 15:27 | 37.72129 | -102.81108 | 35934 ft | 479 kts | 246° |
| 2026-04-21 15:28 | 37.69237 | -102.88674 | 35934 ft | 479 kts | 246° |
| 2026-04-21 15:28 | 37.66339 | -102.96235 | 35930 ft | 479 kts | 246° |
| 2026-04-21 15:29 | 37.63419 | -103.03836 | 35922 ft | 478 kts | 246° |
| 2026-04-21 15:29 | 37.60523 | -103.11359 | 35932 ft | 478 kts | 246° |
| 2026-04-21 15:30 | 37.57621 | -103.18877 | 35928 ft | 478 kts | 245° |
| 2026-04-21 15:30 | 37.54704 | -103.26415 | 35941 ft | 477 kts | 245° |
| 2026-04-21 15:31 | 37.51792 | -103.33922 | 35940 ft | 477 kts | 245° |
| 2026-04-21 15:31 | 37.48864 | -103.41453 | 35945 ft | 477 kts | 245° |
| 2026-04-21 15:32 | 37.45947 | -103.48937 | 35945 ft | 477 kts | 245° |
| 2026-04-21 15:32 | 37.43035 | -103.56391 | 35947 ft | 476 kts | 245° |
| 2026-04-21 15:33 | 37.40103 | -103.63884 | 35952 ft | 476 kts | 245° |
| 2026-04-21 15:33 | 37.37193 | -103.71317 | 35959 ft | 476 kts | 246° |
| 2026-04-21 15:34 | 37.35013 | -103.79140 | 35968 ft | 473 kts | 255° |
| 2026-04-21 15:34 | 37.33207 | -103.87123 | 35957 ft | 473 kts | 256° |
| 2026-04-21 15:35 | 37.31401 | -103.95025 | 35964 ft | 474 kts | 255° |
| 2026-04-21 15:35 | 37.29533 | -104.02967 | 35965 ft | 474 kts | 255° |
| 2026-04-21 15:36 | 37.27639 | -104.10899 | 35960 ft | 474 kts | 255° |
| 2026-04-21 15:36 | 37.25743 | -104.18799 | 36143 ft | 474 kts | 255° |
| 2026-04-21 15:37 | 37.23831 | -104.26745 | 36167 ft | 474 kts | 254° |
| 2026-04-21 15:37 | 37.21929 | -104.34629 | 36163 ft | 473 kts | 254° |
| 2026-04-21 15:38 | 37.20013 | -104.42547 | 36167 ft | 473 kts | 254° |
| 2026-04-21 15:38 | 37.18109 | -104.50390 | 36128 ft | 472 kts | 254° |
| 2026-04-21 15:39 | 37.16189 | -104.58270 | 36088 ft | 472 kts | 254° |
| 2026-04-21 15:39 | 37.14262 | -104.66160 | 36064 ft | 472 kts | 254° |
| 2026-04-21 15:40 | 37.12336 | -104.74014 | 36027 ft | 472 kts | 254° |
| 2026-04-21 15:40 | 37.10402 | -104.81880 | 36018 ft | 472 kts | 254° |
| 2026-04-21 15:41 | 37.08470 | -104.89712 | 36015 ft | 472 kts | 254° |
| 2026-04-21 15:41 | 37.06523 | -104.97580 | 36059 ft | 471 kts | 253° |
| 2026-04-21 15:42 | 37.04574 | -105.05428 | 36045 ft | 471 kts | 253° |
| 2026-04-21 15:42 | 37.02636 | -105.13210 | 36081 ft | 470 kts | 253° |
| 2026-04-21 15:43 | 37.00681 | -105.21038 | 36084 ft | 470 kts | 253° |
| 2026-04-21 15:43 | 36.98729 | -105.28823 | 36094 ft | 470 kts | 253° |
| 2026-04-21 15:44 | 36.96770 | -105.36619 | 36101 ft | 469 kts | 253° |
| 2026-04-21 15:44 | 36.94819 | -105.44356 | 36116 ft | 468 kts | 253° |
| 2026-04-21 15:45 | 36.92848 | -105.52145 | 36113 ft | 468 kts | 253° |
| 2026-04-21 15:45 | 36.90873 | -105.59916 | 36116 ft | 468 kts | 254° |
| 2026-04-21 15:46 | 36.88914 | -105.67628 | 36107 ft | 467 kts | 253° |
| 2026-04-21 15:46 | 36.86944 | -105.75346 | 36101 ft | 466 kts | 253° |
| 2026-04-21 15:47 | 36.84979 | -105.83016 | 36100 ft | 465 kts | 253° |
| 2026-04-21 15:47 | 36.82996 | -105.90735 | 36102 ft | 465 kts | 253° |
| 2026-04-21 15:48 | 36.81023 | -105.98395 | 36087 ft | 465 kts | 253° |
| 2026-04-21 15:48 | 36.79047 | -106.06042 | 36091 ft | 463 kts | 252° |
| 2026-04-21 15:49 | 36.77071 | -106.13672 | 36080 ft | 463 kts | 252° |
| 2026-04-21 15:49 | 36.75095 | -106.21281 | 36088 ft | 462 kts | 253° |
| 2026-04-21 15:50 | 36.73101 | -106.28908 | 36086 ft | 462 kts | 253° |
| 2026-04-21 15:50 | 36.71117 | -106.36495 | 36087 ft | 461 kts | 252° |
| 2026-04-21 15:51 | 36.69459 | -106.42821 | 36084 ft | 460 kts | 252° |
| 2026-04-21 15:51 | 36.67463 | -106.50417 | 36082 ft | 459 kts | 252° |
| 2026-04-21 15:52 | 36.65476 | -106.57953 | 36086 ft | 458 kts | 252° |
| 2026-04-21 15:52 | 36.63484 | -106.65486 | 36083 ft | 458 kts | 252° |
| 2026-04-21 15:53 | 36.61483 | -106.73031 | 36085 ft | 457 kts | 252° |
| 2026-04-21 15:53 | 36.59500 | -106.80489 | 36075 ft | 456 kts | 252° |
| 2026-04-21 15:54 | 36.57492 | -106.88017 | 36072 ft | 456 kts | 252° |
| 2026-04-21 15:54 | 36.55489 | -106.95504 | 36078 ft | 455 kts | 252° |
| 2026-04-21 15:55 | 36.53489 | -107.02961 | 36077 ft | 455 kts | 252° |
| 2026-04-21 15:55 | 36.51488 | -107.10401 | 36088 ft | 455 kts | 251° |
| 2026-04-21 15:56 | 36.49483 | -107.17837 | 36074 ft | 454 kts | 251° |
| 2026-04-21 15:56 | 36.47466 | -107.25297 | 36081 ft | 454 kts | 251° |
| 2026-04-21 15:57 | 36.45396 | -107.32662 | 36076 ft | 453 kts | 249° |
| 2026-04-21 15:57 | 36.43047 | -107.39959 | 36089 ft | 453 kts | 248° |
| 2026-04-21 15:58 | 36.40665 | -107.47171 | 36085 ft | 453 kts | 248° |
| 2026-04-21 15:58 | 36.38298 | -107.54399 | 36083 ft | 453 kts | 248° |
| 2026-04-21 15:59 | 36.35940 | -107.61651 | 36083 ft | 452 kts | 248° |
| 2026-04-21 15:59 | 36.33589 | -107.68883 | 36081 ft | 453 kts | 248° |
| 2026-04-21 16:00 | 36.31235 | -107.76111 | 36082 ft | 452 kts | 248° |
| 2026-04-21 16:00 | 36.28864 | -107.83371 | 36079 ft | 452 kts | 248° |
| 2026-04-21 16:01 | 36.26508 | -107.90563 | 36067 ft | 451 kts | 248° |
| 2026-04-21 16:01 | 36.24147 | -107.97755 | 36063 ft | 451 kts | 248° |
| 2026-04-21 16:02 | 36.21793 | -108.04908 | 36052 ft | 451 kts | 248° |
| 2026-04-21 16:02 | 36.19421 | -108.12097 | 36052 ft | 451 kts | 247° |
| 2026-04-21 16:03 | 36.17041 | -108.19294 | 36042 ft | 451 kts | 247° |
| 2026-04-21 16:03 | 36.14665 | -108.26460 | 36040 ft | 451 kts | 247° |
| 2026-04-21 16:04 | 36.12283 | -108.33628 | 36042 ft | 451 kts | 247° |
| 2026-04-21 16:04 | 36.09888 | -108.40817 | 36039 ft | 451 kts | 247° |
| 2026-04-21 16:05 | 36.07488 | -108.48008 | 36031 ft | 451 kts | 247° |
| 2026-04-21 16:05 | 36.05103 | -108.55133 | 36025 ft | 451 kts | 247° |
| 2026-04-21 16:06 | 36.02693 | -108.62316 | 36019 ft | 451 kts | 247° |
| 2026-04-21 16:06 | 36.00300 | -108.69430 | 36019 ft | 451 kts | 247° |
| 2026-04-21 16:07 | 35.97889 | -108.76583 | 36019 ft | 451 kts | 247° |
| 2026-04-21 16:07 | 35.95471 | -108.83740 | 36024 ft | 452 kts | 246° |
| 2026-04-21 16:08 | 35.91824 | -108.94500 | 36022 ft | 452 kts | 246° |
| 2026-04-21 16:09 | 35.89402 | -109.01625 | 36027 ft | 452 kts | 246° |
| 2026-04-21 16:09 | 35.86964 | -109.08783 | 36014 ft | 452 kts | 246° |
| 2026-04-21 16:09 | 35.85749 | -109.12344 | 36173 ft | 452 kts | 246° |
| 2026-04-21 16:10 | 35.84532 | -109.15904 | 36174 ft | 451 kts | 246° |
| 2026-04-21 16:10 | 35.82097 | -109.23019 | 36154 ft | 449 kts | 246° |
| 2026-04-21 16:11 | 35.79669 | -109.30094 | 36132 ft | 448 kts | 246° |
| 2026-04-21 16:11 | 35.77238 | -109.37165 | 36097 ft | 447 kts | 246° |
| 2026-04-21 16:12 | 35.75230 | -109.42989 | 36064 ft | 447 kts | 246° |
| 2026-04-21 16:12 | 35.72389 | -109.51217 | 36021 ft | 446 kts | 245° |
| 2026-04-21 16:13 | 35.69956 | -109.58243 | 36016 ft | 445 kts | 245° |
| 2026-04-21 16:13 | 35.67531 | -109.65230 | 36024 ft | 445 kts | 245° |
| 2026-04-21 16:14 | 35.65099 | -109.72222 | 36029 ft | 445 kts | 245° |
| 2026-04-21 16:14 | 35.62666 | -109.79201 | 36031 ft | 445 kts | 245° |
| 2026-04-21 16:15 | 35.60224 | -109.86190 | 36032 ft | 445 kts | 245° |
| 2026-04-21 16:15 | 35.57767 | -109.93207 | 36031 ft | 445 kts | 245° |
| 2026-04-21 16:16 | 35.55330 | -110.00155 | 36031 ft | 446 kts | 245° |
| 2026-04-21 16:16 | 35.52862 | -110.07177 | 36031 ft | 446 kts | 245° |
| 2026-04-21 16:17 | 35.50505 | -110.14207 | 36044 ft | 446 kts | 246° |
| 2026-04-21 16:17 | 35.48203 | -110.21239 | 36041 ft | 446 kts | 246° |
| 2026-04-21 16:18 | 35.45887 | -110.28278 | 36038 ft | 446 kts | 246° |
| 2026-04-21 16:18 | 35.43544 | -110.35344 | 36037 ft | 446 kts | 246° |
| 2026-04-21 16:19 | 35.41202 | -110.42379 | 36039 ft | 445 kts | 246° |
| 2026-04-21 16:19 | 35.38862 | -110.49385 | 36047 ft | 445 kts | 246° |
| 2026-04-21 16:20 | 35.36518 | -110.56389 | 36030 ft | 444 kts | 246° |
| 2026-04-21 16:20 | 35.34169 | -110.63394 | 36031 ft | 443 kts | 246° |
| 2026-04-21 16:21 | 35.31834 | -110.70341 | 36036 ft | 442 kts | 246° |
| 2026-04-21 16:21 | 35.29485 | -110.77312 | 36037 ft | 442 kts | 246° |
| 2026-04-21 16:22 | 35.27154 | -110.84217 | 36046 ft | 441 kts | 246° |
| 2026-04-21 16:22 | 35.24806 | -110.91154 | 36031 ft | 441 kts | 246° |
| 2026-04-21 16:23 | 35.22457 | -110.98079 | 36034 ft | 440 kts | 245° |
| 2026-04-21 16:23 | 35.20108 | -111.04987 | 36036 ft | 440 kts | 245° |
| 2026-04-21 16:24 | 35.17749 | -111.11910 | 36037 ft | 440 kts | 245° |
| 2026-04-21 16:24 | 35.15394 | -111.18806 | 36038 ft | 441 kts | 245° |
| 2026-04-21 16:25 | 35.13026 | -111.25724 | 36043 ft | 442 kts | 245° |
| 2026-04-21 16:25 | 35.10662 | -111.32616 | 36058 ft | 443 kts | 245° |
| 2026-04-21 16:26 | 35.08275 | -111.39559 | 36062 ft | 443 kts | 245° |
| 2026-04-21 16:26 | 35.05882 | -111.46503 | 36065 ft | 444 kts | 245° |
| 2026-04-21 16:27 | 35.03493 | -111.53421 | 36065 ft | 444 kts | 245° |
| 2026-04-21 16:27 | 35.02276 | -111.56939 | 36236 ft | 444 kts | 245° |
| 2026-04-21 16:27 | 35.01089 | -111.60367 | 36235 ft | 444 kts | 245° |
| 2026-04-21 16:28 | 34.98673 | -111.67331 | 36224 ft | 444 kts | 246° |
| 2026-04-21 16:28 | 34.96269 | -111.74248 | 36186 ft | 443 kts | 245° |
| 2026-04-21 16:29 | 34.94270 | -111.79986 | 36217 ft | 442 kts | 246° |
| 2026-04-21 16:29 | 34.91461 | -111.88029 | 36195 ft | 440 kts | 246° |
| 2026-04-21 16:30 | 34.89072 | -111.94858 | 36163 ft | 439 kts | 246° |
| 2026-04-21 16:30 | 34.86683 | -112.01669 | 36136 ft | 437 kts | 246° |
| 2026-04-21 16:31 | 34.84294 | -112.08466 | 36094 ft | 437 kts | 246° |
| 2026-04-21 16:31 | 34.81908 | -112.15238 | 36081 ft | 436 kts | 246° |
| 2026-04-21 16:32 | 34.79507 | -112.22042 | 36108 ft | 436 kts | 246° |
| 2026-04-21 16:32 | 34.77111 | -112.28816 | 36141 ft | 436 kts | 246° |
| 2026-04-21 16:33 | 34.74717 | -112.35571 | 36169 ft | 436 kts | 246° |
| 2026-04-21 16:33 | 34.72322 | -112.42315 | 36188 ft | 436 kts | 246° |
| 2026-04-21 16:34 | 34.69952 | -112.49092 | 36186 ft | 436 kts | 249° |
| 2026-04-21 16:34 | 34.68965 | -112.52577 | 36007 ft | 436 kts | 251° |
| 2026-04-21 16:34 | 34.68053 | -112.56083 | 36009 ft | 436 kts | 252° |
| 2026-04-21 16:35 | 34.66262 | -112.63156 | 36007 ft | 436 kts | 252° |
| 2026-04-21 16:35 | 34.64455 | -112.70169 | 36005 ft | 437 kts | 251° |
| 2026-04-21 16:36 | 34.62598 | -112.77237 | 36000 ft | 437 kts | 251° |
| 2026-04-21 16:36 | 34.61051 | -112.83075 | 36013 ft | 436 kts | 251° |
| 2026-04-21 16:37 | 34.58888 | -112.91207 | 35986 ft | 435 kts | 251° |
| 2026-04-21 16:37 | 34.57339 | -112.97019 | 35999 ft | 434 kts | 251° |
| 2026-04-21 16:38 | 34.55475 | -113.04000 | 35997 ft | 434 kts | 251° |
| 2026-04-21 16:38 | 34.53617 | -113.10938 | 35991 ft | 434 kts | 251° |
| 2026-04-21 16:39 | 34.51749 | -113.17896 | 35987 ft | 432 kts | 251° |
| 2026-04-21 16:39 | 34.49882 | -113.24834 | 35979 ft | 431 kts | 251° |
| 2026-04-21 16:40 | 34.48031 | -113.31695 | 35979 ft | 431 kts | 251° |
| 2026-04-21 16:40 | 34.46161 | -113.38609 | 35969 ft | 430 kts | 251° |
| 2026-04-21 16:41 | 34.44301 | -113.45467 | 35976 ft | 429 kts | 252° |
| 2026-04-21 16:41 | 34.42435 | -113.52332 | 35963 ft | 428 kts | 252° |
| 2026-04-21 16:42 | 34.40571 | -113.59173 | 35962 ft | 427 kts | 252° |
| 2026-04-21 16:42 | 34.38700 | -113.66021 | 35958 ft | 427 kts | 252° |
| 2026-04-21 16:43 | 34.36842 | -113.72803 | 35963 ft | 426 kts | 252° |
| 2026-04-21 16:43 | 34.34973 | -113.79613 | 35961 ft | 425 kts | 252° |
| 2026-04-21 16:44 | 34.33116 | -113.86363 | 35955 ft | 424 kts | 252° |
| 2026-04-21 16:44 | 34.31244 | -113.93150 | 35946 ft | 423 kts | 252° |
| 2026-04-21 16:45 | 34.29386 | -113.99868 | 35955 ft | 423 kts | 252° |
| 2026-04-21 16:45 | 34.27512 | -114.06634 | 35954 ft | 423 kts | 252° |
| 2026-04-21 16:46 | 34.25634 | -114.13383 | 35952 ft | 423 kts | 252° |
| 2026-04-21 16:46 | 34.23762 | -114.20081 | 35950 ft | 423 kts | 252° |
| 2026-04-21 16:47 | 34.21877 | -114.26814 | 35951 ft | 422 kts | 252° |
| 2026-04-21 16:47 | 34.19993 | -114.33531 | 35950 ft | 422 kts | 252° |
| 2026-04-21 16:48 | 34.18099 | -114.40267 | 35955 ft | 422 kts | 253° |
| 2026-04-21 16:48 | 34.16218 | -114.46944 | 35951 ft | 421 kts | 253° |
| 2026-04-21 16:49 | 34.14332 | -114.53617 | 35955 ft | 421 kts | 253° |
| 2026-04-21 16:49 | 34.12436 | -114.60320 | 35957 ft | 420 kts | 252° |
| 2026-04-21 16:50 | 34.10538 | -114.67008 | 35959 ft | 420 kts | 252° |
| 2026-04-21 16:50 | 34.08097 | -114.73391 | 35963 ft | 423 kts | 244° |
| 2026-04-21 16:51 | 34.05230 | -114.79605 | 35965 ft | 423 kts | 244° |
| 2026-04-21 16:51 | 34.02425 | -114.85807 | 35964 ft | 423 kts | 244° |
| 2026-04-21 16:52 | 33.99649 | -114.92066 | 35966 ft | 423 kts | 244° |
| 2026-04-21 16:52 | 33.96888 | -114.98298 | 35968 ft | 423 kts | 244° |
| 2026-04-21 16:53 | 33.94099 | -115.04557 | 35974 ft | 422 kts | 244° |
| 2026-04-21 16:53 | 33.91306 | -115.10785 | 35973 ft | 422 kts | 244° |
| 2026-04-21 16:54 | 33.88532 | -115.16962 | 35978 ft | 421 kts | 244° |
| 2026-04-21 16:54 | 33.85734 | -115.23189 | 35975 ft | 421 kts | 244° |
| 2026-04-21 16:55 | 33.82960 | -115.29353 | 35977 ft | 420 kts | 244° |
| 2026-04-21 16:55 | 33.80184 | -115.35510 | 35997 ft | 419 kts | 244° |
| 2026-04-21 16:56 | 33.77408 | -115.41657 | 35981 ft | 417 kts | 244° |
| 2026-04-21 16:56 | 33.74638 | -115.47783 | 35980 ft | 415 kts | 244° |
| 2026-04-21 16:57 | 33.71901 | -115.53838 | 35978 ft | 413 kts | 244° |
| 2026-04-21 16:57 | 33.69198 | -115.59961 | 35372 ft | 417 kts | 244° |
| 2026-04-21 16:57 | 33.67848 | -115.63039 | 34769 ft | 414 kts | 245° |
| 2026-04-21 16:58 | 33.66521 | -115.66060 | 34187 ft | 412 kts | 244° |
| 2026-04-21 16:58 | 33.65182 | -115.69102 | 33339 ft | 414 kts | 244° |
| 2026-04-21 16:58 | 33.63831 | -115.72162 | 32612 ft | 413 kts | 244° |
| 2026-04-21 16:58 | 33.62477 | -115.75224 | 31837 ft | 414 kts | 243° |
| 2026-04-21 16:59 | 33.61040 | -115.78195 | 31092 ft | 416 kts | 238° |
| 2026-04-21 16:59 | 33.59393 | -115.81071 | 30318 ft | 418 kts | 236° |
| 2026-04-21 16:59 | 33.57684 | -115.83910 | 29381 ft | 422 kts | 235° |
| 2026-04-21 16:59 | 33.55964 | -115.86776 | 28446 ft | 424 kts | 235° |
| 2026-04-21 17:00 | 33.54263 | -115.89669 | 27521 ft | 426 kts | 235° |
| 2026-04-21 17:00 | 33.52563 | -115.92600 | 26565 ft | 428 kts | 235° |
| 2026-04-21 17:00 | 33.51437 | -115.94549 | 25950 ft | 431 kts | 235° |
| 2026-04-21 17:00 | 33.49180 | -115.98456 | 25260 ft | 423 kts | 235° |
| 2026-04-21 17:01 | 33.47499 | -116.01356 | 24736 ft | 432 kts | 235° |
| 2026-04-21 17:01 | 33.45773 | -116.04331 | 24171 ft | 435 kts | 234° |
| 2026-04-21 17:01 | 33.44058 | -116.07286 | 23626 ft | 430 kts | 234° |
| 2026-04-21 17:01 | 33.42357 | -116.10213 | 23019 ft | 425 kts | 234° |
| 2026-04-21 17:02 | 33.40677 | -116.13104 | 22449 ft | 420 kts | 234° |
| 2026-04-21 17:02 | 33.39016 | -116.15960 | 21919 ft | 415 kts | 234° |
| 2026-04-21 17:02 | 33.37370 | -116.18788 | 21393 ft | 411 kts | 234° |
| 2026-04-21 17:02 | 33.35746 | -116.21592 | 20887 ft | 409 kts | 234° |
| 2026-04-21 17:03 | 33.33981 | -116.24253 | 20380 ft | 407 kts | 224° |
| 2026-04-21 17:03 | 33.31751 | -116.26269 | 19905 ft | 407 kts | 211° |
| 2026-04-21 17:03 | 33.29224 | -116.27816 | 19414 ft | 407 kts | 207° |
| 2026-04-21 17:03 | 33.26669 | -116.29271 | 18906 ft | 406 kts | 207° |
| 2026-04-21 17:04 | 33.24108 | -116.30719 | 18397 ft | 405 kts | 207° |
| 2026-04-21 17:04 | 33.21567 | -116.32170 | 17804 ft | 403 kts | 207° |
| 2026-04-21 17:04 | 33.19080 | -116.33604 | 17197 ft | 396 kts | 207° |
| 2026-04-21 17:04 | 33.16631 | -116.35028 | 16663 ft | 387 kts | 207° |
| 2026-04-21 17:05 | 33.14214 | -116.36440 | 16192 ft | 384 kts | 207° |
| 2026-04-21 17:05 | 33.11813 | -116.37844 | 15688 ft | 381 kts | 207° |
| 2026-04-21 17:05 | 33.09457 | -116.39222 | 15245 ft | 373 kts | 207° |
| 2026-04-21 17:05 | 33.07144 | -116.40573 | 14795 ft | 366 kts | 207° |
| 2026-04-21 17:06 | 33.04899 | -116.41883 | 14344 ft | 360 kts | 206° |
| 2026-04-21 17:06 | 33.02663 | -116.43186 | 13896 ft | 350 kts | 206° |
| 2026-04-21 17:06 | 33.00536 | -116.44462 | 13418 ft | 335 kts | 211° |
| 2026-04-21 17:06 | 32.98715 | -116.46108 | 12992 ft | 321 kts | 220° |
| 2026-04-21 17:07 | 32.97608 | -116.47258 | 12712 ft | 313 kts | 220° |
| 2026-04-21 17:07 | 32.95497 | -116.49483 | 12210 ft | 300 kts | 220° |
| 2026-04-21 17:07 | 32.93913 | -116.51103 | 11893 ft | 300 kts | 219° |
| 2026-04-21 17:07 | 32.92331 | -116.52708 | 11497 ft | 300 kts | 220° |
| 2026-04-21 17:08 | 32.90744 | -116.54318 | 11137 ft | 299 kts | 219° |
| 2026-04-21 17:08 | 32.89162 | -116.55915 | 10757 ft | 298 kts | 219° |
| 2026-04-21 17:08 | 32.87578 | -116.57509 | 10400 ft | 296 kts | 219° |
| 2026-04-21 17:08 | 32.86002 | -116.59096 | 10038 ft | 296 kts | 220° |
| 2026-04-21 17:09 | 32.82998 | -116.62114 | 9832 ft | 265 kts | 220° |
| 2026-04-21 17:09 | 32.81597 | -116.63526 | 9519 ft | 263 kts | 220° |
| 2026-04-21 17:09 | 32.80203 | -116.64933 | 9200 ft | 263 kts | 220° |
| 2026-04-21 17:10 | 32.78804 | -116.66341 | 8895 ft | 263 kts | 220° |
| 2026-04-21 17:10 | 32.77457 | -116.67771 | 8587 ft | 262 kts | 229° |
| 2026-04-21 17:10 | 32.76475 | -116.69598 | 8281 ft | 263 kts | 241° |
| 2026-04-21 17:10 | 32.75600 | -116.71507 | 7992 ft | 261 kts | 240° |
| 2026-04-21 17:11 | 32.74714 | -116.73406 | 7677 ft | 263 kts | 240° |
| 2026-04-21 17:11 | 32.73822 | -116.75300 | 7407 ft | 261 kts | 241° |
| 2026-04-21 17:11 | 32.72944 | -116.77164 | 7077 ft | 263 kts | 241° |
| 2026-04-21 17:11 | 32.72056 | -116.79042 | 6951 ft | 257 kts | 242° |
| 2026-04-21 17:12 | 32.71190 | -116.80867 | 6874 ft | 249 kts | 242° |
| 2026-04-21 17:12 | 32.70415 | -116.82663 | 6761 ft | 238 kts | 249° |
| 2026-04-21 17:12 | 32.69848 | -116.84473 | 6613 ft | 227 kts | 251° |
| 2026-04-21 17:12 | 32.69338 | -116.86174 | 6442 ft | 213 kts | 251° |
| 2026-04-21 17:13 | 32.68841 | -116.87819 | 5944 ft | 215 kts | 251° |
| 2026-04-21 17:13 | 32.68350 | -116.89509 | 5444 ft | 216 kts | 252° |
| 2026-04-21 17:13 | 32.67858 | -116.91193 | 5026 ft | 215 kts | 252° |
| 2026-04-21 17:13 | 32.67385 | -116.92882 | 4561 ft | 214 kts | 258° |
| 2026-04-21 17:14 | 32.67423 | -116.94626 | 4138 ft | 211 kts | 283° |
| 2026-04-21 17:14 | 32.67829 | -116.96304 | 3876 ft | 212 kts | 285° |
| 2026-04-21 17:14 | 32.68247 | -116.98004 | 3605 ft | 216 kts | 285° |
| 2026-04-21 17:14 | 32.68663 | -116.99706 | 3360 ft | 218 kts | 285° |
| 2026-04-21 17:15 | 32.69083 | -117.01414 | 3079 ft | 212 kts | 285° |
| 2026-04-21 17:15 | 32.69484 | -117.03045 | 2811 ft | 200 kts | 285° |
| 2026-04-21 17:15 | 32.69861 | -117.04585 | 2553 ft | 187 kts | 285° |
| 2026-04-21 17:15 | 32.70211 | -117.06019 | 2322 ft | 176 kts | 285° |
| 2026-04-21 17:16 | 32.70541 | -117.07388 | 1998 ft | 172 kts | 284° |
| 2026-04-21 17:16 | 32.70861 | -117.08708 | 1933 ft | 163 kts | 285° |
| 2026-04-21 17:16 | 32.71178 | -117.09949 | 1765 ft | 151 kts | 285° |
| 2026-04-21 17:16 | 32.71470 | -117.11139 | 1426 ft | 151 kts | 285° |
| 2026-04-21 17:17 | 32.71767 | -117.12346 | 1168 ft | 150 kts | 285° |
| 2026-04-21 17:17 | 32.72053 | -117.13509 | 933 ft | 149 kts | 286° |
| 2026-04-21 17:17 | 32.72339 | -117.14701 | 697 ft | 150 kts | 284° |
| 2026-04-21 17:17 | 32.72606 | -117.15907 | 489 ft | 151 kts | 285° |
| 2026-04-21 17:18 | 32.72903 | -117.17113 | 241 ft | 152 kts | 286° |
| 2026-04-21 17:18 | 32.73194 | -117.18299 | 37 ft | 146 kts | 285° |
| 2026-04-21 17:18 | 32.73437 | -117.19299 | 21 ft | 97 kts | 286° |
| 2026-04-21 17:18 | 32.73532 | -117.19734 | 28 ft | 20 kts | 270° |
| 2026-04-21 17:19 | 32.73492 | -117.19839 | 24 ft | 10 kts | 194° |
| 2026-04-21 17:19 | 32.73451 | -117.19776 | 24 ft | 10 kts | 107° |
| 2026-04-21 17:19 | 32.73430 | -117.19692 | 22 ft | 12 kts | 106° |
| 2026-04-21 17:19 | 32.73407 | -117.19599 | 22 ft | 12 kts | 106° |
| 2026-04-21 17:20 | 32.73385 | -117.19507 | 25 ft | 11 kts | 107° |
| 2026-04-21 17:20 | 32.73344 | -117.19432 | 22 ft | 11 kts | 158° |
| 2026-04-21 17:20 | 32.73294 | -117.19440 | 21 ft | 4 kts | 204° |
| 2026-04-21 17:20 | 32.73265 | -117.19458 | 20 ft | 5 kts | 210° |
| 2026-04-21 17:21 | 32.73243 | -117.19476 | 20 ft | 6 kts | 226° |
| 2026-04-21 17:21 | 32.73241 | -117.19525 | 19 ft | 6 kts | 293° |
| 2026-04-21 17:21 | 32.73255 | -117.19548 | 20 ft | 0 kts | 312° |